Time;durP1;ratioP1;P1;durP2;ratioP2;P2;SDS_P1;SDS_P2;PMS_P1;PMS_P2;Temp;Humidity;BMP_temperature;BMP_pressure;BME280_temperature;BME280_humidity;BME280_pressure;Samples;Min_cycle;Max_cycle;Signal;HPM_P1;HPM_P2
2023/01/22 00:01:18;;;;;;;21.02;11.38;;;-0.10;99.90;;;;;;4990640;28;20133;-73
2023/01/22 00:03:47;;;;;;;19.42;11.18;;;-0.20;99.90;;;;;;5011211;28;20532;-74
2023/01/22 00:06:15;;;;;;;21.42;11.57;;;-0.20;99.90;;;;;;5011240;28;20511;-74
2023/01/22 00:08:43;;;;;;;21.35;12.30;;;-0.20;99.90;;;;;;5006965;28;20042;-74
2023/01/22 00:11:11;;;;;;;24.23;12.77;;;-0.20;99.90;;;;;;5027911;28;20038;-73
2023/01/22 00:13:38;;;;;;;18.73;10.70;;;-0.20;99.90;;;;;;5028514;28;20041;-73
2023/01/22 00:16:06;;;;;;;21.58;11.43;;;-0.20;99.90;;;;;;5011550;28;20050;-73
2023/01/22 00:18:34;;;;;;;22.50;12.48;;;-0.20;99.90;;;;;;5008710;28;20101;-74
2023/01/22 00:21:01;;;;;;;24.27;13.00;;;-0.20;99.90;;;;;;4992967;28;20466;-73
2023/01/22 00:23:29;;;;;;;22.98;11.95;;;-0.20;99.90;;;;;;4991549;28;20064;-74
2023/01/22 00:26:04;;;;;;;23.70;11.70;;;-0.20;99.90;;;;;;5000887;28;20046;-73
2023/01/22 00:28:31;;;;;;;21.27;11.25;;;-0.10;99.90;;;;;;5010703;28;20413;-72
2023/01/22 00:31:01;;;;;;;19.52;10.80;;;-0.10;99.90;;;;;;5020482;28;20041;-73
2023/01/22 00:33:29;;;;;;;19.75;11.55;;;-0.10;99.90;;;;;;5030744;28;20033;-74
2023/01/22 00:36:03;;;;;;;22.95;11.98;;;-0.10;99.90;;;;;;4996829;28;20416;-71
2023/01/22 00:38:30;;;;;;;23.30;11.52;;;-0.10;99.90;;;;;;5016391;28;20050;-72
2023/01/22 00:41:03;;;;;;;21.55;11.88;;;-0.20;99.90;;;;;;4994017;28;20393;-71
2023/01/22 00:43:33;;;;;;;20.23;11.82;;;-0.10;99.90;;;;;;5002720;28;20068;-70
2023/01/22 00:46:00;;;;;;;18.48;10.65;;;-0.10;99.90;;;;;;5019583;28;20496;-71
2023/01/22 00:48:27;;;;;;;23.08;11.52;;;-0.10;99.90;;;;;;5002581;28;20149;-71
2023/01/22 00:50:55;;;;;;;21.88;12.05;;;-0.10;99.90;;;;;;4985119;28;20046;-72
2023/01/22 00:53:23;;;;;;;22.33;11.85;;;-0.10;99.90;;;;;;4994384;28;20119;-74
2023/01/22 00:55:58;;;;;;;23.42;12.73;;;-0.10;99.90;;;;;;5021328;28;20407;-72
2023/01/22 00:58:27;;;;;;;26.73;12.77;;;-0.10;99.90;;;;;;4998205;28;20042;-72
2023/01/22 01:00:55;;;;;;;24.65;11.43;;;-0.10;99.90;;;;;;5032663;28;20045;-70
2023/01/22 01:03:25;;;;;;;26.95;12.63;;;-0.10;99.90;;;;;;4995825;28;20128;-71
2023/01/22 01:05:54;;;;;;;21.77;11.93;;;-0.10;99.90;;;;;;4999669;28;20046;-71
2023/01/22 01:08:22;;;;;;;19.25;10.68;;;-0.10;99.90;;;;;;5012265;28;20042;-72
2023/01/22 01:10:57;;;;;;;20.48;11.15;;;-0.10;99.90;;;;;;4994056;28;20420;-73
2023/01/22 01:13:25;;;;;;;23.67;11.73;;;-0.10;99.90;;;;;;5001838;28;20097;-72
2023/01/22 01:16:05;;;;;;;20.73;10.80;;;-0.10;99.90;;;;;;5011476;28;20080;-71
2023/01/22 01:18:34;;;;;;;20.00;10.88;;;-0.10;99.90;;;;;;5015436;28;20060;-73
2023/01/22 01:21:03;;;;;;;22.77;11.63;;;-0.10;99.90;;;;;;5010023;28;20913;-72
2023/01/22 01:23:30;;;;;;;19.13;11.38;;;-0.10;99.90;;;;;;4999132;28;20064;-69
2023/01/22 01:26:03;;;;;;;20.13;11.60;;;-0.10;99.90;;;;;;4999062;28;20034;-70
2023/01/22 01:28:30;;;;;;;16.80;9.07;;;-0.10;99.90;;;;;;5011449;28;20092;-71
2023/01/22 01:31:05;;;;;;;22.48;11.73;;;-0.10;99.90;;;;;;5014637;28;20046;-71
2023/01/22 01:33:32;;;;;;;22.50;11.23;;;-0.10;99.90;;;;;;5013779;28;20485;-70
2023/01/22 01:36:10;;;;;;;21.23;12.10;;;-0.10;99.90;;;;;;5012810;28;20092;-71
2023/01/22 01:38:37;;;;;;;20.83;11.52;;;-0.10;99.90;;;;;;5009026;28;20568;-70
2023/01/22 01:41:06;;;;;;;22.58;11.38;;;-0.10;99.90;;;;;;4997187;28;20405;-70
2023/01/22 01:43:33;;;;;;;18.75;10.68;;;-0.10;99.90;;;;;;5013583;28;20517;-71
2023/01/22 01:46:03;;;;;;;16.88;10.38;;;-0.10;99.90;;;;;;5012862;28;20064;-70
2023/01/22 01:48:33;;;;;;;21.45;11.40;;;-0.10;99.90;;;;;;4996903;28;20049;-70
2023/01/22 01:51:06;;;;;;;20.90;11.40;;;-0.10;99.90;;;;;;4997079;28;20499;-70
2023/01/22 01:53:34;;;;;;;19.17;10.90;;;-0.20;99.90;;;;;;5013049;28;20390;-71
2023/01/22 01:56:06;;;;;;;24.15;11.25;;;-0.20;99.90;;;;;;5013072;28;20145;-70
2023/01/22 01:58:36;;;;;;;25.63;13.43;;;-0.20;99.90;;;;;;5014354;28;20412;-70
2023/01/22 02:01:10;;;;;;;22.75;11.73;;;-0.20;99.90;;;;;;5012228;28;20497;-69
2023/01/22 02:03:39;;;;;;;21.23;11.15;;;-0.20;99.90;;;;;;5013171;28;20132;-71
2023/01/22 02:06:15;;;;;;;21.00;11.50;;;-0.20;99.90;;;;;;4988442;28;20104;-70
2023/01/22 02:08:46;;;;;;;25.02;11.82;;;-0.20;99.90;;;;;;5014048;28;20042;-70
2023/01/22 02:11:16;;;;;;;21.77;11.27;;;-0.20;99.90;;;;;;5008679;28;20034;-70
2023/01/22 02:14:07;;;;;;;19.88;11.35;;;-0.20;99.90;;;;;;5012233;28;20046;-69
2023/01/22 02:16:34;;;;;;;20.88;11.60;;;-0.20;99.90;;;;;;4983588;28;20105;-71
2023/01/22 02:19:02;;;;;;;21.35;12.05;;;-0.20;99.90;;;;;;5009616;28;20038;-72
2023/01/22 02:21:35;;;;;;;28.13;11.52;;;-0.10;99.90;;;;;;5012911;28;20054;-72
2023/01/22 02:24:06;;;;;;;20.30;11.02;;;-0.10;99.90;;;;;;5012595;28;20507;-70
2023/01/22 02:26:34;;;;;;;19.63;10.55;;;-0.10;99.90;;;;;;5012507;28;20126;-72
2023/01/22 02:29:03;;;;;;;18.17;10.40;;;-0.10;99.90;;;;;;5011802;28;20040;-70
2023/01/22 02:31:30;;;;;;;24.75;11.80;;;-0.10;99.90;;;;;;5012500;28;20049;-70
2023/01/22 02:34:00;;;;;;;20.98;11.18;;;-0.10;99.90;;;;;;5012189;28;20050;-71
2023/01/22 02:36:30;;;;;;;20.85;11.07;;;-0.10;99.90;;;;;;5012303;28;20045;-70
2023/01/22 02:38:58;;;;;;;22.05;11.60;;;-0.20;99.90;;;;;;5016468;28;20116;-70
2023/01/22 02:41:26;;;;;;;18.23;10.98;;;-0.10;99.90;;;;;;4979742;28;20041;-70
2023/01/22 02:43:54;;;;;;;20.55;10.43;;;-0.10;99.90;;;;;;4995561;28;20053;-69
2023/01/22 02:46:26;;;;;;;21.92;11.55;;;-0.20;99.90;;;;;;4994473;28;20100;-71
2023/01/22 02:48:54;;;;;;;18.48;10.15;;;-0.20;99.90;;;;;;4995173;28;20038;-70
2023/01/22 02:51:21;;;;;;;19.48;11.13;;;-0.10;99.90;;;;;;4996247;28;20038;-70
2023/01/22 02:53:49;;;;;;;21.15;11.57;;;-0.10;99.90;;;;;;4996159;28;20076;-69
2023/01/22 02:56:18;;;;;;;19.88;10.82;;;-0.10;99.90;;;;;;5027049;28;20045;-69
2023/01/22 02:58:46;;;;;;;18.60;10.15;;;-0.20;99.90;;;;;;5025019;28;20062;-70
2023/01/22 03:01:19;;;;;;;19.13;10.43;;;-0.20;99.90;;;;;;5007628;28;20045;-70
2023/01/22 03:03:57;;;;;;;22.73;11.38;;;-0.20;99.90;;;;;;4986781;28;20133;-70
2023/01/22 03:06:27;;;;;;;19.75;9.98;;;-0.20;99.90;;;;;;5011169;28;20042;-71
2023/01/22 03:08:59;;;;;;;21.52;10.32;;;-0.10;99.90;;;;;;4979582;28;20038;-70
2023/01/22 03:11:29;;;;;;;18.05;10.13;;;-0.10;99.90;;;;;;5029360;28;20042;-69
2023/01/22 03:22:23;;;;;;;17.35;9.35;;;0.00;99.90;;;;;;5029677;28;20045;-72
2023/01/22 03:24:51;;;;;;;20.02;10.48;;;0.00;99.90;;;;;;5014017;28;20132;-70
2023/01/22 03:27:24;;;;;;;17.42;9.73;;;0.00;99.90;;;;;;5009378;28;20034;-71
2023/01/22 03:29:52;;;;;;;18.85;9.68;;;-0.10;99.90;;;;;;5015925;28;20381;-71
2023/01/22 03:32:20;;;;;;;19.58;10.40;;;-0.20;99.90;;;;;;5030665;28;20065;-71
2023/01/22 03:34:47;;;;;;;19.02;10.60;;;-0.20;99.90;;;;;;5030819;28;20542;-72
2023/01/22 03:37:15;;;;;;;18.95;9.63;;;-0.20;99.90;;;;;;5030095;28;20042;-71
2023/01/22 03:39:44;;;;;;;16.27;9.80;;;-0.10;99.90;;;;;;5015148;28;20087;-71
2023/01/22 03:42:23;;;;;;;18.25;10.80;;;-0.10;99.90;;;;;;5007369;28;20042;-72
2023/01/22 03:44:50;;;;;;;17.90;10.35;;;-0.10;99.90;;;;;;5030887;28;20084;-72
2023/01/22 03:47:17;;;;;;;20.58;10.30;;;-0.10;99.90;;;;;;4996309;28;20072;-70
2023/01/22 03:49:44;;;;;;;15.68;9.35;;;-0.10;99.90;;;;;;5029099;28;20046;-69
2023/01/22 03:52:12;;;;;;;21.58;10.05;;;-0.10;99.90;;;;;;5013341;28;20103;-70
2023/01/22 03:54:39;;;;;;;18.23;10.02;;;-0.10;99.90;;;;;;5015475;28;20121;-70
2023/01/22 03:57:08;;;;;;;17.27;10.35;;;-0.10;99.90;;;;;;4975123;28;20046;-70
2023/01/22 03:59:38;;;;;;;18.85;10.27;;;-0.10;99.90;;;;;;4983405;28;20512;-72
2023/01/22 04:02:06;;;;;;;16.35;9.88;;;-0.10;99.90;;;;;;5009984;28;20042;-70
2023/01/22 04:04:43;;;;;;;17.88;10.48;;;-0.10;99.90;;;;;;5017309;28;20484;-69
2023/01/22 04:07:11;;;;;;;18.33;10.40;;;-0.20;99.90;;;;;;4993959;28;20439;-69
2023/01/22 04:09:39;;;;;;;17.77;10.10;;;-0.10;99.90;;;;;;5012201;28;20536;-70
2023/01/22 04:12:06;;;;;;;18.13;10.00;;;-0.20;99.90;;;;;;5018972;28;20049;-69
2023/01/22 04:14:33;;;;;;;15.50;9.48;;;-0.20;99.90;;;;;;5028467;28;20053;-70
2023/01/22 04:17:02;;;;;;;19.77;10.38;;;-0.20;99.90;;;;;;5028234;28;20049;-71
2023/01/22 04:19:59;;;;;;;19.42;11.02;;;-0.20;99.90;;;;;;4992111;28;20081;-72
2023/01/22 04:22:46;;;;;;;19.70;9.88;;;-0.20;99.90;;;;;;4991447;28;20072;-71
2023/01/22 04:25:14;;;;;;;16.52;9.90;;;-0.20;99.90;;;;;;5008544;28;20737;-72
2023/01/22 04:27:44;;;;;;;16.95;9.32;;;-0.20;99.90;;;;;;4986571;28;20077;-70
2023/01/22 04:30:16;;;;;;;18.27;10.07;;;-0.10;99.90;;;;;;4973081;28;20061;-70
2023/01/22 04:32:47;;;;;;;17.13;9.52;;;-0.10;99.90;;;;;;4964085;28;20042;-71
2023/01/22 04:35:26;;;;;;;19.98;10.07;;;-0.10;99.90;;;;;;4970130;28;20513;-71
2023/01/22 04:37:56;;;;;;;17.67;10.00;;;-0.10;99.90;;;;;;4953587;28;20490;-70
2023/01/22 04:40:24;;;;;;;16.27;9.27;;;-0.10;99.90;;;;;;4989881;28;20164;-69
2023/01/22 04:42:52;;;;;;;19.05;10.23;;;-0.10;99.90;;;;;;5008246;28;20049;-69
2023/01/22 04:45:19;;;;;;;16.23;9.75;;;-0.10;99.90;;;;;;4975285;28;20444;-72
2023/01/22 04:47:47;;;;;;;21.30;10.60;;;-0.10;99.90;;;;;;4989080;28;20145;-69
2023/01/22 04:50:21;;;;;;;19.15;10.50;;;-0.10;99.90;;;;;;4989096;28;20061;-70
2023/01/22 04:52:53;;;;;;;17.83;9.80;;;-0.20;99.90;;;;;;4973897;28;20559;-71
2023/01/22 04:55:20;;;;;;;18.40;11.15;;;-0.20;99.90;;;;;;4975551;28;20038;-70
2023/01/22 04:58:00;;;;;;;16.92;10.20;;;-0.20;99.90;;;;;;5009847;28;20527;-70
2023/01/22 05:00:29;;;;;;;19.10;10.20;;;-0.20;99.90;;;;;;5008881;28;20081;-70
2023/01/22 05:03:01;;;;;;;20.38;10.13;;;-0.20;99.90;;;;;;4992825;28;20061;-70
2023/01/22 05:05:30;;;;;;;17.25;9.90;;;-0.20;99.90;;;;;;5021291;28;20551;-71
2023/01/22 05:07:58;;;;;;;17.92;9.77;;;-0.20;99.90;;;;;;5008836;28;20057;-71
2023/01/22 05:10:26;;;;;;;21.85;10.10;;;-0.20;99.90;;;;;;4990191;28;20508;-70
2023/01/22 05:12:54;;;;;;;18.40;10.60;;;-0.20;99.90;;;;;;4989058;28;20039;-70
2023/01/22 05:15:23;;;;;;;17.15;10.70;;;-0.10;99.90;;;;;;4986929;28;20185;-70
2023/01/22 05:17:55;;;;;;;15.68;9.77;;;-0.20;99.90;;;;;;4990158;28;20054;-70
2023/01/22 05:20:24;;;;;;;16.33;8.88;;;-0.20;99.90;;;;;;4989725;28;20057;-70
2023/01/22 05:22:52;;;;;;;19.73;10.40;;;-0.20;99.90;;;;;;4984495;28;20056;-71
2023/01/22 05:25:23;;;;;;;19.90;11.02;;;-0.20;99.90;;;;;;4974671;28;20532;-71
2023/01/22 05:27:50;;;;;;;17.88;10.40;;;-0.10;99.90;;;;;;4992202;28;20046;-70
2023/01/22 05:30:44;;;;;;;17.00;9.57;;;-0.10;99.90;;;;;;5005188;28;20046;-70
2023/01/22 05:33:23;;;;;;;18.58;11.02;;;-0.10;99.90;;;;;;5008648;28;20042;-70
2023/01/22 05:36:00;;;;;;;17.30;10.05;;;-0.10;99.90;;;;;;5008566;28;20048;-70
2023/01/22 05:38:29;;;;;;;24.10;13.00;;;-0.10;99.90;;;;;;5008365;28;20100;-71
2023/01/22 05:40:57;;;;;;;20.75;10.85;;;-0.10;99.90;;;;;;4991783;28;20489;-71
2023/01/22 05:43:27;;;;;;;19.55;10.48;;;-0.10;99.90;;;;;;4994940;28;20380;-70
2023/01/22 05:46:00;;;;;;;18.25;10.18;;;-0.10;99.90;;;;;;5017658;28;20172;-70
2023/01/22 05:49:06;;;;;;;18.38;10.50;;;-0.10;99.90;;;;;;5039179;28;20452;-70
2023/01/22 05:51:34;;;;;;;18.25;10.48;;;-0.10;99.90;;;;;;5052283;28;20102;-70
2023/01/22 05:54:02;;;;;;;17.42;10.27;;;-0.10;99.90;;;;;;5035173;28;20211;-71
2023/01/22 05:56:32;;;;;;;16.40;9.80;;;-0.10;99.90;;;;;;5035164;28;20033;-70
2023/01/22 05:58:59;;;;;;;17.90;10.27;;;-0.10;99.90;;;;;;5035512;28;20483;-69
2023/01/22 06:01:27;;;;;;;19.48;10.63;;;-0.10;99.90;;;;;;5050487;28;20546;-68
2023/01/22 06:03:57;;;;;;;19.60;10.43;;;-0.10;99.90;;;;;;5050065;28;20148;-70
2023/01/22 06:06:25;;;;;;;17.88;10.07;;;-0.10;99.90;;;;;;5033073;28;20498;-69
2023/01/22 06:08:54;;;;;;;17.67;10.20;;;-0.10;99.90;;;;;;5026916;28;20048;-71
2023/01/22 06:11:22;;;;;;;16.02;9.60;;;-0.10;99.90;;;;;;5048843;28;20690;-69
2023/01/22 06:13:50;;;;;;;19.38;10.98;;;-0.10;99.90;;;;;;5015941;28;20049;-69
2023/01/22 06:16:20;;;;;;;18.33;10.30;;;-0.10;99.90;;;;;;5049347;28;20488;-69
2023/01/22 06:19:08;;;;;;;17.27;9.90;;;-0.10;99.90;;;;;;5030399;28;20049;-69
2023/01/22 06:21:42;;;;;;;18.95;9.75;;;-0.20;99.90;;;;;;5015673;28;20563;-69
2023/01/22 06:24:10;;;;;;;16.35;10.15;;;-0.10;99.90;;;;;;4999102;28;20054;-70
2023/01/22 06:26:38;;;;;;;17.80;10.48;;;-0.10;99.90;;;;;;5010301;28;20353;-70
2023/01/22 06:29:07;;;;;;;16.13;9.90;;;-0.10;99.90;;;;;;5012439;28;20064;-70
2023/01/22 06:31:35;;;;;;;17.65;10.20;;;-0.10;99.90;;;;;;4995286;28;20393;-69
2023/01/22 06:34:06;;;;;;;19.05;9.82;;;-0.10;99.90;;;;;;4995874;28;20046;-71
2023/01/22 06:36:33;;;;;;;22.05;11.32;;;-0.10;99.90;;;;;;5022163;28;20076;-70
2023/01/22 06:39:00;;;;;;;19.27;9.77;;;-0.10;99.90;;;;;;5015729;28;20103;-70
2023/01/22 06:41:38;;;;;;;18.00;10.35;;;-0.10;99.90;;;;;;5023036;28;20042;-71
2023/01/22 06:44:09;;;;;;;16.27;9.77;;;0.00;99.90;;;;;;4995571;28;20049;-70
2023/01/22 06:46:36;;;;;;;15.45;9.55;;;0.00;99.90;;;;;;4994529;28;20049;-70
2023/01/22 06:49:10;;;;;;;17.05;10.02;;;0.00;99.90;;;;;;4995192;28;20057;-70
2023/01/22 06:51:39;;;;;;;17.33;9.68;;;-0.10;99.90;;;;;;5010256;28;20037;-69
2023/01/22 06:54:11;;;;;;;16.13;9.25;;;-0.10;99.90;;;;;;5011247;28;20393;-70
2023/01/22 06:56:38;;;;;;;15.98;9.40;;;-0.10;99.90;;;;;;5018256;28;20041;-70
2023/01/22 06:59:06;;;;;;;16.88;10.05;;;0.00;99.90;;;;;;5031002;28;20476;-70
2023/01/22 07:01:33;;;;;;;16.20;9.02;;;-0.10;99.90;;;;;;5022673;28;20046;-69
2023/01/22 07:04:00;;;;;;;16.98;9.63;;;0.00;99.90;;;;;;5012283;28;20440;-70
2023/01/22 07:06:28;;;;;;;16.00;9.63;;;0.00;99.90;;;;;;5017148;28;20046;-69
2023/01/22 07:08:55;;;;;;;17.60;10.00;;;0.00;99.90;;;;;;5025722;28;20049;-70
2023/01/22 07:11:23;;;;;;;19.27;9.52;;;0.00;99.90;;;;;;5025284;28;20120;-69
2023/01/22 07:13:50;;;;;;;15.45;9.23;;;0.00;99.90;;;;;;5029844;28;20053;-69
2023/01/22 07:16:17;;;;;;;18.83;10.05;;;0.00;99.90;;;;;;5030970;28;20492;-72
2023/01/22 07:18:45;;;;;;;17.75;9.93;;;0.00;99.90;;;;;;5030071;28;20041;-71
2023/01/22 07:21:12;;;;;;;19.63;10.90;;;0.00;99.90;;;;;;5011609;28;20360;-71
2023/01/22 07:23:41;;;;;;;17.65;10.38;;;0.10;99.90;;;;;;5011776;28;20496;-73
2023/01/22 07:26:08;;;;;;;16.88;9.88;;;0.10;99.90;;;;;;4989536;28;20494;-71
2023/01/22 07:28:35;;;;;;;16.02;9.48;;;0.10;99.90;;;;;;5014898;28;20566;-71
2023/01/22 07:31:04;;;;;;;14.73;9.02;;;0.10;99.90;;;;;;4991686;28;20120;-71
2023/01/22 07:33:31;;;;;;;16.05;9.65;;;0.10;99.90;;;;;;5007867;28;20461;-71
2023/01/22 07:35:58;;;;;;;16.55;9.18;;;0.10;99.90;;;;;;5008266;28;20044;-70
2023/01/22 07:38:26;;;;;;;17.15;9.55;;;0.10;99.90;;;;;;5008872;28;20676;-72
2023/01/22 07:41:00;;;;;;;40.15;19.75;;;0.20;99.90;;;;;;5011426;28;20064;-71
2023/01/22 07:43:27;;;;;;;25.38;12.80;;;0.30;99.90;;;;;;5011427;28;20046;-71
2023/01/22 07:45:56;;;;;;;22.00;11.85;;;0.30;99.90;;;;;;5012216;28;20087;-71
2023/01/22 07:48:24;;;;;;;17.00;10.20;;;0.30;99.90;;;;;;4994010;28;20034;-70
2023/01/22 07:50:51;;;;;;;17.17;10.05;;;0.30;99.90;;;;;;4993278;28;20439;-70
2023/01/22 07:53:18;;;;;;;17.70;9.88;;;0.30;99.90;;;;;;5010897;28;20050;-71
2023/01/22 07:55:45;;;;;;;15.43;9.65;;;0.30;99.90;;;;;;4994417;28;20049;-70
2023/01/22 07:58:13;;;;;;;14.85;9.68;;;0.30;99.90;;;;;;5009990;28;20093;-71
2023/01/22 08:00:40;;;;;;;16.90;10.05;;;0.30;99.90;;;;;;5007417;28;20493;-71
2023/01/22 08:03:09;;;;;;;20.33;11.02;;;0.40;99.90;;;;;;5004067;28;20396;-71
2023/01/22 08:05:41;;;;;;;16.30;10.07;;;0.40;99.90;;;;;;5011488;28;20066;-71
2023/01/22 08:08:15;;;;;;;;;;;0.50;99.90;;;;;;5000336;28;20405;-70
2023/01/22 08:10:43;;;;;;;14.63;8.95;;;0.40;99.90;;;;;;5011235;28;20322;-71
2023/01/22 08:13:11;;;;;;;15.60;9.68;;;0.50;99.90;;;;;;5009854;28;20046;-70
2023/01/22 08:15:40;;;;;;;17.40;8.73;;;0.40;99.90;;;;;;5011214;28;20123;-71
2023/01/22 08:18:09;;;;;;;19.63;10.07;;;0.40;99.90;;;;;;5004037;28;20048;-70
2023/01/22 08:20:37;;;;;;;17.50;9.15;;;0.40;99.90;;;;;;4990077;28;20128;-71
2023/01/22 08:23:04;;;;;;;14.25;9.13;;;0.50;99.90;;;;;;5009890;28;20046;-69
2023/01/22 08:25:31;;;;;;;16.95;9.15;;;0.60;99.90;;;;;;5009410;28;20073;-71
2023/01/22 08:28:03;;;;;;;14.85;9.23;;;0.60;99.90;;;;;;4993564;28;20045;-70
2023/01/22 08:30:32;;;;;;;19.35;11.27;;;0.70;99.90;;;;;;5007913;28;20053;-71
2023/01/22 08:33:11;;;;;;;22.65;13.75;;;0.60;99.90;;;;;;5009862;28;20157;-70
2023/01/22 08:35:38;;;;;;;15.70;9.65;;;0.70;99.90;;;;;;4990638;28;20041;-70
2023/01/22 08:38:06;;;;;;;15.70;8.98;;;0.70;99.90;;;;;;5006883;28;20077;-70
2023/01/22 08:40:33;;;;;;;17.80;9.50;;;0.80;99.90;;;;;;5009536;28;20163;-71
2023/01/22 08:43:03;;;;;;;16.98;9.63;;;0.80;99.90;;;;;;4992845;28;20545;-71
2023/01/22 08:45:31;;;;;;;16.73;9.20;;;0.90;99.90;;;;;;5009991;28;20492;-70
2023/01/22 08:47:59;;;;;;;14.98;9.32;;;0.90;99.90;;;;;;5008676;28;20132;-70
2023/01/22 08:50:27;;;;;;;15.75;9.25;;;1.00;99.90;;;;;;5009284;28;20034;-70
2023/01/22 08:52:56;;;;;;;15.52;9.82;;;1.00;99.90;;;;;;5009857;28;20060;-70
2023/01/22 08:55:26;;;;;;;16.02;10.13;;;1.00;99.90;;;;;;4992078;28;20132;-69
2023/01/22 08:57:54;;;;;;;16.63;10.60;;;1.00;99.90;;;;;;5009774;28;20034;-69
2023/01/22 09:00:23;;;;;;;16.10;9.65;;;1.00;99.90;;;;;;5009566;28;20132;-71
2023/01/22 09:02:51;;;;;;;16.38;9.35;;;1.10;99.90;;;;;;5003490;28;20497;-71
2023/01/22 09:05:18;;;;;;;14.60;8.80;;;1.10;99.90;;;;;;5006408;28;20045;-71
2023/01/22 09:07:45;;;;;;;17.15;9.30;;;1.10;99.90;;;;;;5008090;28;20072;-70
2023/01/22 09:10:12;;;;;;;16.88;9.25;;;1.20;99.90;;;;;;5008706;28;20045;-70
2023/01/22 09:12:40;;;;;;;15.45;9.25;;;1.20;99.90;;;;;;5010362;28;20034;-71
2023/01/22 09:15:09;;;;;;;12.77;8.15;;;1.20;99.90;;;;;;5008600;28;20046;-68
2023/01/22 09:17:37;;;;;;;13.98;7.85;;;1.30;99.90;;;;;;5006348;28;20137;-72
2023/01/22 09:20:04;;;;;;;12.73;8.32;;;1.20;99.90;;;;;;4994951;28;20046;-69
2023/01/22 09:22:31;;;;;;;15.00;8.73;;;1.20;99.90;;;;;;4997412;28;20426;-69
2023/01/22 09:24:59;;;;;;;13.82;8.57;;;1.10;99.90;;;;;;4993526;28;20051;-71
2023/01/22 09:27:26;;;;;;;13.88;8.50;;;1.20;99.90;;;;;;5004521;28;20042;-70
2023/01/22 09:29:53;;;;;;;15.60;8.85;;;1.20;99.90;;;;;;5007173;28;20030;-70
2023/01/22 09:32:21;;;;;;;18.15;10.38;;;1.30;99.90;;;;;;5010487;28;20042;-70
2023/01/22 09:34:48;;;;;;;13.15;8.20;;;1.30;99.90;;;;;;5010762;28;20493;-69
2023/01/22 09:37:15;;;;;;;13.23;8.43;;;1.30;99.90;;;;;;5012025;28;20072;-69
2023/01/22 09:39:42;;;;;;;13.20;8.40;;;1.40;99.90;;;;;;5014261;28;20124;-70
2023/01/22 09:42:19;;;;;;;11.68;7.97;;;1.40;99.90;;;;;;5009584;28;20049;-71
2023/01/22 09:44:52;;;;;;;13.88;8.43;;;1.40;99.90;;;;;;4997141;28;20517;-69
2023/01/22 09:47:54;;;;;;;13.38;8.10;;;1.50;99.90;;;;;;5012797;28;20048;-70
2023/01/22 09:50:28;;;;;;;14.43;8.95;;;1.50;99.90;;;;;;4997310;28;20420;-70
2023/01/22 09:52:58;;;;;;;18.45;10.40;;;1.60;99.90;;;;;;5014250;28;20121;-70
2023/01/22 09:55:30;;;;;;;16.20;8.63;;;1.60;99.90;;;;;;5011945;28;20048;-68
2023/01/22 09:58:04;;;;;;;21.58;12.10;;;1.70;99.90;;;;;;5011240;28;20121;-70
2023/01/22 10:00:37;;;;;;;18.42;10.23;;;1.80;99.90;;;;;;5009465;28;20147;-72
2023/01/22 10:03:14;;;;;;;12.50;7.47;;;1.80;99.90;;;;;;4995226;28;20057;-72
2023/01/22 10:05:56;;;;;;;12.85;7.93;;;1.90;99.90;;;;;;4980552;28;20054;-73
2023/01/22 10:08:33;;;;;;;9.85;6.90;;;2.00;99.90;;;;;;5012232;28;20433;-70
2023/01/22 10:11:00;;;;;;;11.00;7.07;;;2.10;99.90;;;;;;5015514;28;20132;-73
2023/01/22 10:13:48;;;;;;;11.82;7.53;;;2.20;99.90;;;;;;4996353;28;20068;-73
2023/01/22 10:16:16;;;;;;;11.68;6.97;;;2.30;99.90;;;;;;5012300;28;20506;-71
2023/01/22 10:19:01;;;;;;;11.77;8.02;;;2.30;99.90;;;;;;5013734;28;20042;-74
2023/01/22 10:21:31;;;;;;;14.35;9.27;;;2.40;99.90;;;;;;5012486;28;20380;-74
2023/01/22 10:23:59;;;;;;;15.85;9.57;;;2.30;99.90;;;;;;4992428;28;20092;-71
2023/01/22 10:26:51;;;;;;;17.55;10.27;;;2.30;99.90;;;;;;4979347;28;20042;-73
2023/01/22 10:29:33;;;;;;;17.10;10.32;;;2.30;99.90;;;;;;5009717;28;20155;-72
2023/01/22 10:32:14;;;;;;;18.17;9.57;;;2.30;99.90;;;;;;4994443;28;20038;-72
2023/01/22 10:34:42;;;;;;;16.40;9.68;;;2.10;99.90;;;;;;5012897;28;20416;-73
2023/01/22 10:37:15;;;;;;;15.05;9.02;;;2.20;99.90;;;;;;4995741;28;20042;-72
2023/01/22 10:39:47;;;;;;;11.32;7.72;;;2.40;99.90;;;;;;5014897;28;20110;-74
2023/01/22 10:42:20;;;;;;;10.15;7.00;;;2.50;99.90;;;;;;5010495;28;20103;-74
2023/01/22 10:44:48;;;;;;;13.30;7.95;;;2.60;99.90;;;;;;5011826;28;20532;-72
2023/01/22 10:47:21;;;;;;;19.33;11.02;;;2.70;99.90;;;;;;5002272;28;20053;-73
2023/01/22 10:50:03;;;;;;;20.45;11.43;;;2.80;99.90;;;;;;5010223;28;20042;-72
2023/01/22 10:52:40;;;;;;;12.73;7.53;;;2.80;99.90;;;;;;5009998;28;20053;-71
2023/01/22 10:55:36;;;;;;;12.02;7.55;;;2.70;99.90;;;;;;5011620;28;20728;-73
2023/01/22 10:58:13;;;;;;;13.23;7.88;;;2.60;99.90;;;;;;5025466;28;20477;-71
2023/01/22 11:00:41;;;;;;;12.10;7.72;;;2.60;99.90;;;;;;5032479;28;20054;-71
2023/01/22 11:03:27;;;;;;;11.27;7.75;;;2.60;99.90;;;;;;5031732;28;20554;-75
2023/01/22 11:06:03;;;;;;;11.13;7.15;;;2.50;99.90;;;;;;5015421;28;20453;-71
2023/01/22 11:08:44;;;;;;;12.70;8.25;;;2.60;99.90;;;;;;5010852;28;20465;-73
2023/01/22 11:11:16;;;;;;;13.00;7.82;;;2.60;99.90;;;;;;4992950;28;20050;-71
2023/01/22 11:13:54;;;;;;;;;;;2.60;99.90;;;;;;5004360;28;20505;-73
2023/01/22 11:16:23;;;;;;;9.95;6.38;;;2.70;99.90;;;;;;5011308;28;20341;-70
2023/01/22 11:18:56;;;;;;;9.68;6.65;;;2.70;99.90;;;;;;5012093;28;20416;-72
2023/01/22 11:21:50;;;;;;;10.70;7.03;;;2.70;99.90;;;;;;5007506;28;20496;-71
2023/01/22 11:24:25;;;;;;;10.93;6.80;;;2.70;99.90;;;;;;5010934;28;20046;-72
2023/01/22 11:26:55;;;;;;;11.63;6.88;;;2.70;99.90;;;;;;5011685;28;20037;-72
2023/01/22 11:29:50;;;;;;;10.63;7.05;;;2.70;99.90;;;;;;5006334;28;20061;-72
2023/01/22 11:32:38;;;;;;;11.02;7.22;;;2.80;99.90;;;;;;5010912;28;20526;-72
2023/01/22 11:35:27;;;;;;;9.90;6.65;;;2.90;99.90;;;;;;5009637;28;20388;-71
2023/01/22 11:38:13;;;;;;;13.85;7.45;;;2.70;99.90;;;;;;4976015;28;20053;-70
2023/01/22 11:40:52;;;;;;;11.70;7.20;;;2.70;99.90;;;;;;4994231;28;20076;-71
2023/01/22 11:43:37;;;;;;;12.23;7.70;;;2.80;99.90;;;;;;5009972;28;20480;-72
2023/01/22 11:46:26;;;;;;;10.35;7.65;;;2.90;99.90;;;;;;5009514;28;20408;-71
2023/01/22 11:49:30;;;;;;;11.73;7.25;;;2.70;99.90;;;;;;5011053;28;20064;-71
2023/01/22 11:52:19;;;;;;;11.85;7.93;;;2.70;99.90;;;;;;5009185;28;20465;-72
2023/01/22 11:55:15;;;;;;;14.45;9.73;;;2.80;99.90;;;;;;5010577;28;20042;-71
2023/01/22 11:57:55;;;;;;;11.40;6.90;;;2.80;99.90;;;;;;5025760;28;20477;-72
2023/01/22 12:00:31;;;;;;;12.40;7.75;;;2.80;99.90;;;;;;5031146;28;20052;-71
2023/01/22 12:03:27;;;;;;;11.30;6.80;;;2.90;99.90;;;;;;5007269;28;20056;-71
2023/01/22 12:06:11;;;;;;;9.30;6.40;;;2.90;99.90;;;;;;5005580;28;20046;-71
2023/01/22 12:09:04;;;;;;;10.63;6.85;;;2.90;99.90;;;;;;5002398;28;20045;-71
2023/01/22 12:11:54;;;;;;;9.70;6.50;;;2.90;99.90;;;;;;4999666;28;20484;-71
2023/01/22 12:14:35;;;;;;;9.63;6.07;;;3.10;99.90;;;;;;5002614;28;20232;-71
2023/01/22 12:17:27;;;;;;;10.50;7.03;;;2.90;99.90;;;;;;5007340;28;20354;-71
2023/01/22 12:20:07;;;;;;;10.73;7.38;;;2.90;99.90;;;;;;5005298;28;20038;-72
2023/01/22 12:22:39;;;;;;;11.20;7.93;;;3.00;99.90;;;;;;5009843;28;20069;-72
2023/01/22 12:25:31;;;;;;;9.77;7.05;;;2.90;99.90;;;;;;5009258;28;20136;-72
2023/01/22 12:28:08;;;;;;;11.43;6.95;;;2.90;99.90;;;;;;5011267;28;20157;-74
2023/01/22 12:31:15;;;;;;;11.07;6.93;;;2.80;99.90;;;;;;5009286;28;20038;-71
2023/01/22 12:33:44;;;;;;;10.95;6.78;;;2.80;99.90;;;;;;5018385;28;20452;-70
2023/01/22 12:36:17;;;;;;;9.75;6.75;;;2.70;99.90;;;;;;5013351;28;20463;-70
2023/01/22 12:38:58;;;;;;;10.13;6.90;;;2.70;99.90;;;;;;5027590;28;20091;-70
2023/01/22 12:41:53;;;;;;;10.88;7.00;;;2.80;99.90;;;;;;4977593;28;20057;-70
2023/01/22 12:44:46;;;;;;;10.18;6.90;;;2.90;99.90;;;;;;4973043;28;20092;-69
2023/01/22 12:47:23;;;;;;;10.13;6.70;;;2.90;99.90;;;;;;4983588;28;20501;-68
2023/01/22 12:49:52;;;;;;;8.55;6.10;;;3.10;99.90;;;;;;5004034;28;20046;-67
2023/01/22 12:52:32;;;;;;;11.90;7.18;;;3.10;99.90;;;;;;5007807;28;20050;-68
2023/01/22 12:55:00;;;;;;;10.13;7.25;;;3.10;99.90;;;;;;4978195;28;20050;-67
2023/01/22 12:57:39;;;;;;;11.70;7.05;;;3.10;99.90;;;;;;5013393;28;20034;-67
2023/01/22 13:00:23;;;;;;;11.68;7.55;;;3.00;99.90;;;;;;5021334;28;20467;-67
2023/01/22 13:02:50;;;;;;;11.63;7.10;;;3.00;99.90;;;;;;5005155;28;20045;-67
2023/01/22 13:05:25;;;;;;;11.75;6.78;;;2.90;99.90;;;;;;5031439;28;20069;-67
2023/01/22 13:08:15;;;;;;;10.48;7.03;;;2.90;99.90;;;;;;5016363;28;20062;-68
2023/01/22 13:11:05;;;;;;;12.25;7.32;;;2.90;99.90;;;;;;4993116;28;20034;-67
2023/01/22 13:13:50;;;;;;;15.73;9.80;;;2.80;99.90;;;;;;5012776;28;20045;-67